Map

Track Data

SID SEASON NUMBER BASIN SUBBASIN NAME ISO_TIME NATURE LAT LON WMO_WIND WMO_PRES WMO_AGENCY TRACK_TYPE DIST2LAND LANDFALL IFLAG USA_AGENCY USA_ATCF_ID USA_LAT USA_LON USA_RECORD USA_STATUS USA_WIND USA_PRES USA_SSHS USA_R34_NE USA_R34_SE USA_R34_SW USA_R34_NW USA_R50_NE USA_R50_SE USA_R50_SW USA_R50_NW USA_R64_NE USA_R64_SE USA_R64_SW USA_R64_NW USA_POCI USA_ROCI USA_RMW USA_EYE TOKYO_LAT TOKYO_LON TOKYO_GRADE TOKYO_WIND TOKYO_PRES TOKYO_R50_DIR TOKYO_R50_LONG TOKYO_R50_SHORT TOKYO_R30_DIR TOKYO_R30_LONG TOKYO_R30_SHORT TOKYO_LAND CMA_LAT CMA_LON CMA_CAT CMA_WIND CMA_PRES HKO_LAT HKO_LON HKO_CAT HKO_WIND HKO_PRES NEWDELHI_LAT NEWDELHI_LON NEWDELHI_GRADE NEWDELHI_WIND NEWDELHI_PRES NEWDELHI_CI NEWDELHI_DP NEWDELHI_POCI REUNION_LAT REUNION_LON REUNION_TYPE REUNION_WIND REUNION_PRES REUNION_TNUM REUNION_CI REUNION_RMW REUNION_R34_NE REUNION_R34_SE REUNION_R34_SW REUNION_R34_NW REUNION_R50_NE REUNION_R50_SE REUNION_R50_SW REUNION_R50_NW REUNION_R64_NE REUNION_R64_SE REUNION_R64_SW REUNION_R64_NW BOM_LAT BOM_LON BOM_TYPE BOM_WIND BOM_PRES BOM_TNUM BOM_CI BOM_RMW BOM_R34_NE BOM_R34_SE BOM_R34_SW BOM_R34_NW BOM_R50_NE BOM_R50_SE BOM_R50_SW BOM_R50_NW BOM_R64_NE BOM_R64_SE BOM_R64_SW BOM_R64_NW BOM_ROCI BOM_POCI BOM_EYE BOM_POS_METHOD BOM_PRES_METHOD NADI_LAT NADI_LON NADI_CAT NADI_WIND NADI_PRES WELLINGTON_LAT WELLINGTON_LON WELLINGTON_WIND WELLINGTON_PRES DS824_LAT DS824_LON DS824_STAGE DS824_WIND DS824_PRES TD9636_LAT TD9636_LON TD9636_STAGE TD9636_WIND TD9636_PRES TD9635_LAT TD9635_LON TD9635_WIND TD9635_PRES TD9635_ROCI NEUMANN_LAT NEUMANN_LON NEUMANN_CLASS NEUMANN_WIND NEUMANN_PRES MLC_LAT MLC_LON MLC_CLASS MLC_WIND MLC_PRES USA_GUST BOM_GUST BOM_GUST_PER REUNION_GUST REUNION_GUST_PER USA_SEAHGT USA_SEARAD_NE USA_SEARAD_SE USA_SEARAD_SW USA_SEARAD_NW STORM_SPEED STORM_DIR
1996348S09108 1997 121 SI WA OPHELIA 1996-12-13 10:00:00 NR -9.10000 107.900 25 1002 bom main 155 155 ______O_______ -1 -9.10000 107.900 20 25 1002 1.50000 53 3 5 2 26
1996348S09108 1997 121 SI WA OPHELIA 1996-12-13 12:00:00 NR -9.04972 107.916 main 145 145 ______P_______ -1 -9.04972 107.916 20 1 20
1996348S09108 1997 121 SI WA OPHELIA 1996-12-13 15:00:00 NR -8.98255 107.939 main 145 138 ______P_______ -1 -8.98255 107.939 20 6 115
1996348S09108 1997 121 SI WA OPHELIA 1996-12-13 18:00:00 TS -9.29106 108.440 main 168 168 O_____P_____O_ jtwc_sh SH111997 -10.0000 109.400 25 -1 -8.93659 107.960 20 -10.0000 109.400 TC 25 8 128
1996348S09108 1997 121 SI WA OPHELIA 1996-12-13 21:00:00 TS -9.46230 108.565 main 191 191 P_____P_____P_ SH111997 -10.0000 109.153 25 -1 -8.92457 107.978 20 -10.0000 109.153 TC 25 3 161
1996348S09108 1997 121 SI WA OPHELIA 1996-12-14 00:00:00 TS -9.58369 108.536 main 201 201 O_____P_____O_ jtwc_sh SH111997 -10.0000 108.900 25 -1 -8.95922 107.991 20 -10.0000 108.900 TC 25 3 212
1996348S09108 1997 121 SI WA OPHELIA 1996-12-14 03:00:00 TS -9.68442 108.428 main 212 212 P_____P_____P_ SH111997 -10.0000 108.643 25 -1 -9.05326 107.999 20 -10.0000 108.643 TC 25 3 235
1996348S09108 1997 121 SI WA OPHELIA 1996-12-14 04:00:00 TS -9.70000 108.373 25 1000 bom main 212 212 P_____O_____P_ SH111997 -10.0000 108.559 25 -1 -9.10000 108.000 20 25 1000 2.00000 80 3 5 -10.0000 108.559 TC 25 3 250
1996348S09108 1997 121 SI WA OPHELIA 1996-12-14 06:00:00 TS -9.74049 108.267 main 213 213 O_____P_____O_ jtwc_sh SH111997 -10.0000 108.400 25 -1 -9.22148 108.000 20 25 1000 80 -10.0000 108.400 TC 25 3 249
1996348S09108 1997 121 SI WA OPHELIA 1996-12-14 07:00:00 TS -9.76317 108.210 25 1000 bom main 225 225 P_____O_____P_ SH111997 -9.99476 108.315 25 -1 -9.30000 108.000 20 25 1000 2.00000 80 3 5 -9.99476 108.315 TC 25 4 243
1996348S09108 1997 121 SI WA OPHELIA 1996-12-14 09:00:00 TS -9.82473 108.102 main 226 226 P_____P_____P_ SH111997 -9.98501 108.155 27 -1 -9.50419 107.997 20 28 998 80 -9.98501 108.155 TC 27 4 238
1996348S09108 1997 121 SI WA OPHELIA 1996-12-14 10:00:00 TS -9.85614 108.059 30 998 bom main 237 237 P_____O_____P_ SH111997 -9.98421 108.088 28 -1 -9.60000 108.000 20 30 998 2.50000 80 3 5 -9.98421 108.088 TC 28 3 229
1996348S09108 1997 121 SI WA OPHELIA 1996-12-14 12:00:00 TS -9.90640 108.006 main 239 239 O_____P_____O_ jtwc_sh SH111997 -10.0000 108.000 30 -1 -9.71919 108.018 20 30 998 80 -10.0000 108.000 TC 30 2 197
1996348S09108 1997 121 SI WA OPHELIA 1996-12-14 15:00:00 TS -9.99229 108.028 main 250 250 P_____P_____P_ SH111997 -10.0925 108.005 32 -1 -9.79192 108.074 20 30 998 80 -10.0925 108.005 TC 32 2 164
1996348S09108 1997 121 SI WA OPHELIA 1996-12-14 16:00:00 TS -10.0202 108.054 30 998 bom main 248 248 P_____O_____P_ SH111997 -10.1304 108.032 33 -1 -9.80000 108.100 20 30 998 2.50000 80 3 5 -10.1304 108.032 TC 33 2 132
1996348S09108 1997 121 SI WA OPHELIA 1996-12-14 18:00:00 TS -10.0716 108.120 main 259 258 O_____P_____O_ jtwc_sh SH111997 -10.2000 108.100 35 0 -9.81482 108.159 20 30 998 88 -10.2000 108.100 TC 35 2 120
1996348S09108 1997 121 SI WA OPHELIA 1996-12-14 21:00:00 TS -10.1064 108.207 main 258 258 P_____P_____P_ SH111997 -10.2575 108.178 37 0 -9.80421 108.265 20 30 998 102 -10.2575 108.178 TC 37 2 110
1996348S09108 1997 121 SI WA OPHELIA 1996-12-14 22:00:00 TS -10.1147 108.241 30 998 bom main 258 257 P_____O_____P_ SH111997 -10.2721 108.212 38 0 -9.80000 108.300 20 30 998 2.50000 107 3 5 -10.2721 108.212 TC 38 2 100
1996348S09108 1997 121 SI WA OPHELIA 1996-12-15 00:00:00 TS -10.1250 108.319 main 257 257 O_____P_____O_ jtwc_sh SH111997 -10.3000 108.300 40 0 -9.77488 108.358 20 33 996 107 -10.3000 108.300 TC 40 3 102
1996348S09108 1997 121 SI WA OPHELIA 1996-12-15 01:00:00 TS -10.1427 108.370 35 995 bom main 257 257 P_____O_____P_ SH111997 -10.3140 108.355 40 0 -9.80000 108.400 30 35 995 3.00000 107 3 5 -10.3140 108.355 TC 40 4 120
1996348S09108 1997 121 SI WA OPHELIA 1996-12-15 03:00:00 TS -10.2282 108.505 main 269 269 P_____P_____P_ SH111997 -10.3425 108.485 42 0 -9.99952 108.544 30 35 995 107 -10.3425 108.485 TC 42 5 123
1996348S09108 1997 121 SI WA OPHELIA 1996-12-15 04:00:00 TS -10.2725 108.571 35 995 bom main 280 280 P_____O_____P_ SH111997 -10.3588 108.556 43 0 -10.1000 108.600 30 35 995 3.00000 107 3 5 -10.3588 108.556 TC 43 4 121
1996348S09108 1997 121 SI WA OPHELIA 1996-12-15 06:00:00 TS -10.3232 108.668 main 281 281 O_____P_____O_ jtwc_sh SH111997 -10.4000 108.700 45 0 -10.1696 108.603 30 38 991 107 -10.4000 108.700 TC 45 3 119
1996348S09108 1997 121 SI WA OPHELIA 1996-12-15 07:00:00 TS -10.3482 108.708 40 990 bom main 281 281 P_____O_____P_ SH111997 -10.4224 108.761 45 0 -10.2000 108.600 30 40 990 3.00000 107 3 5 -10.4224 108.761 TC 45 3 127
1996348S09108 1997 121 SI WA OPHELIA 1996-12-15 09:00:00 TS -10.4265 108.808 main 292 292 P_____P_____P_ SH111997 -10.4775 108.885 45 0 -10.3246 108.653 30 40 990 107 -10.4775 108.885 TC 45 4 129
1996348S09108 1997 121 SI WA OPHELIA 1996-12-15 10:00:00 TS -10.4747 108.867 40 990 bom main 302 302 P_____O_____P_ SH111997 -10.5121 108.951 45 0 -10.4000 108.700 30 40 990 3.00000 107 3 5 -10.5121 108.951 TC 45 5 130
1996348S09108 1997 121 SI WA OPHELIA 1996-12-15 12:00:00 TS -10.5869 109.007 main 313 313 O_____P_____O_ jtwc_sh SH111997 -10.6000 109.100 45 0 -10.5606 108.820 30 43 988 115 -10.6000 109.100 TC 45 6 128
1996348S09108 1997 121 SI WA OPHELIA 1996-12-15 15:00:00 TS -10.7912 109.282 main 328 324 P_____P_____P_ SH111997 -10.7775 109.378 47 0 -10.8185 109.090 30 48 985 129 -10.7775 109.378 TC 47 7 127
1996348S09108 1997 121 SI WA OPHELIA 1996-12-15 16:00:00 TS -10.8653 109.388 50 985 bom main 334 329 P_____O_____P_ SH111997 -10.8479 109.481 48 0 -10.9000 109.200 30 50 985 3.50000 134 3 5 -10.8479 109.481 TC 48 8 124
1996348S09108 1997 121 SI WA OPHELIA 1996-12-15 18:00:00 TS -11.0087 109.615 main 336 332 O_____P_____O_ jtwc_sh SH111997 -11.0000 109.700 50 0 -11.0260 109.445 30 50 985 134 -11.0000 109.700 TC 50 8 122
1996348S09108 1997 121 SI WA OPHELIA 1996-12-15 21:00:00 TS -11.2300 109.987 main 344 344 P_____P_____P_ SH111997 -11.2350 110.050 52 0 -11.2199 109.860 30 50 985 134 -11.2350 110.050 TC 52 9 122
1996348S09108 1997 121 SI WA OPHELIA 1996-12-15 22:00:00 TS -11.3133 110.113 50 985 bom main 353 351 P_____O_____P_ SH111997 -11.3200 110.169 53 0 -11.3000 110.000 30 50 985 3.50000 134 3 5 -11.3200 110.169 TC 53 9 126
1996348S09108 1997 121 SI WA OPHELIA 1996-12-16 00:00:00 TS -11.4960 110.356 main 369 369 O_____P_____O_ jtwc_sh SH111997 -11.5000 110.400 55 0 -11.4881 110.267 30 53 981 134 -11.5000 110.400 TC 55 9 129
1996348S09108 1997 121 SI WA OPHELIA 1996-12-16 01:00:00 TS -11.5961 110.465 55 980 bom main 377 377 P_____O_____P_ SH111997 -11.5942 110.498 55 0 -11.6000 110.400 30 55 980 4.00000 134 3 5 -11.5942 110.498 TC 55 9 136
1996348S09108 1997 121 SI WA OPHELIA 1996-12-16 03:00:00 TS -11.8180 110.679 main 395 395 P_____P_____P_ SH111997 -11.7924 110.685 55 0 -11.8691 110.667 30 55 980 134 -11.7924 110.685 TC 55 9 137
1996348S09108 1997 121 SI WA OPHELIA 1996-12-16 04:00:00 TS -11.9296 110.788 55 980 bom main 404 404 P_____O_____P_ SH111997 -11.8944 110.782 55 0 -12.0000 110.800 30 55 980 4.00000 134 3 5 -11.8944 110.782 TC 55 9 134
1996348S09108 1997 121 SI WA OPHELIA 1996-12-16 06:00:00 TS -12.1351 111.020 main 421 421 O_____P_____O_ jtwc_sh SH111997 -12.1000 111.000 55 0 -12.2054 111.059 30 55 980 134 -12.1000 111.000 TC 55 9 131
1996348S09108 1997 121 SI WA OPHELIA 1996-12-16 07:00:00 TS -12.2351 111.152 55 980 bom main 429 429 P_____O_____P_ SH111997 -12.2026 111.128 55 0 -12.3000 111.200 30 55 980 4.00000 134 3 5 -12.2026 111.128 TC 55 10 126
1996348S09108 1997 121 SI WA OPHELIA 1996-12-16 09:00:00 TS -12.4400 111.452 main 448 448 P_____P_____P_ SH111997 -12.4074 111.413 55 0 -12.5052 111.530 30 51 983 134 -12.4074 111.413 TC 55 11 124
1996348S09108 1997 121 SI WA OPHELIA 1996-12-16 10:00:00 TS -12.5386 111.612 50 985 bom main 459 459 P_____O_____P_ SH111997 -12.5078 111.568 55 0 -12.6000 111.700 30 50 985 3.50000 134 3 5 -12.5078 111.568 TC 55 11 121
1996348S09108 1997 121 SI WA OPHELIA 1996-12-16 12:00:00 TS -12.7198 111.935 main 482 482 O_____P_____O_ jtwc_sh SH111997 -12.7000 111.900 55 0 -12.7595 112.006 30 50 985 134 -12.7000 111.900 TC 55 11 118
1996348S09108 1997 121 SI WA OPHELIA 1996-12-16 15:00:00 TS -12.9636 112.444 main 516 509 P_____P_____P_ SH111997 -12.9725 112.442 55 0 -12.9459 112.448 30 50 985 134 -12.9725 112.442 TC 55 11 115
1996348S09108 1997 121 SI WA OPHELIA 1996-12-16 16:00:00 TS -13.0364 112.620 50 985 bom main 509 509 P_____O_____P_ SH111997 -13.0546 112.630 55 0 -13.0000 112.600 30 50 985 3.50000 134 3 5 -13.0546 112.630 TC 55 11 112
1996348S09108 1997 121 SI WA OPHELIA 1996-12-16 18:00:00 TS -13.1693 112.975 main 522 515 O_____P_____O_ jtwc_sh SH111997 -13.2000 113.000 55 0 -13.1079 112.926 30 46 986 125 -13.2000 113.000 TC 55 11 110
1996348S09108 1997 121 SI WA OPHELIA 1996-12-16 21:00:00 TS -13.3375 113.487 main 518 518 P_____P_____P_ SH111997 -13.3799 113.515 55 0 -13.2526 113.431 30 41 989 111 -13.3799 113.515 TC 55 10 108
1996348S09108 1997 121 SI WA OPHELIA 1996-12-16 22:00:00 TS -13.3844 113.653 40 990 bom main 524 520 P_____O_____P_ SH111997 -13.4266 113.680 55 0 -13.3000 113.600 30 40 990 3.00000 107 3 5 -13.4266 113.680 TC 55 10 105
1996348S09108 1997 121 SI WA OPHELIA 1996-12-17 00:00:00 TS -13.4691 113.978 main 530 527 O_____P_____O_ jtwc_sh SH111997 -13.5000 114.000 55 0 -13.4073 113.933 30 40 990 107 -13.5000 114.000 TC 55 10 103
1996348S09108 1997 121 SI WA OPHELIA 1996-12-17 03:00:00 TS -13.5726 114.464 main 537 537 P_____P_____P_ SH111997 -13.5800 114.480 55 0 -13.5577 114.433 30 40 990 107 -13.5800 114.480 TC 55 10 101
1996348S09108 1997 121 SI WA OPHELIA 1996-12-17 04:00:00 TS -13.5956 114.619 40 990 bom main 537 537 P_____O_____P_ SH111997 -13.5933 114.629 55 0 -13.6000 114.600 30 40 990 3.00000 107 3 5 -13.5933 114.629 TC 55 9 97
1996348S09108 1997 121 SI WA OPHELIA 1996-12-17 06:00:00 TS -13.6256 114.914 main 538 537 O_____P_____O_ jtwc_sh SH111997 -13.6000 114.900 55 0 -13.6768 114.942 30 40 990 107 -13.6000 114.900 TC 55 8 95
1996348S09108 1997 121 SI WA OPHELIA 1996-12-17 07:00:00 TS -13.6280 115.043 40 990 bom main 537 528 P_____O_____P_ SH111997 -13.5920 115.015 54 0 -13.7000 115.100 30 40 990 3.00000 107 3 5 -13.5920 115.015 TC 54 7 87
1996348S09108 1997 121 SI WA OPHELIA 1996-12-17 09:00:00 TS -13.6061 115.269 main 528 526 P_____P_____P_ SH111997 -13.5573 115.215 52 0 -13.7035 115.378 30 36 993 107 -13.5573 115.215 TC 52 6 83
1996348S09108 1997 121 SI WA OPHELIA 1996-12-17 10:00:00 TS -13.5908 115.372 35 995 bom main 526 522 P_____O_____P_ SH111997 -13.5362 115.308 51 0 -13.7000 115.500 30 35 995 3.00000 107 3 5 -13.5362 115.308 TC 51 6 84
1996348S09108 1997 121 SI WA OPHELIA 1996-12-17 12:00:00 TS -13.5757 115.575 main 522 518 O_____P_____O_ jtwc_sh SH111997 -13.5000 115.500 50 0 -13.7272 115.726 30 33 995 107 -13.5000 115.500 TC 50 6 89
1996348S09108 1997 121 SI WA OPHELIA 1996-12-17 15:00:00 TS -13.5851 115.904 main 518 515 P_____P_____P_ SH111997 -13.4850 115.850 47 0 -13.7852 116.013 30 30 997 107 -13.4850 115.850 TC 47 6 92
1996348S09108 1997 121 SI WA OPHELIA 1996-12-17 16:00:00 TS -13.5911 116.013 30 998 bom main 515 511 P_____O_____P_ SH111997 -13.4867 115.969 46 0 -13.8000 116.100 20 30 998 2.50000 107 3 5 -13.4867 115.969 TC 46 6 93
1996348S09108 1997 121 SI WA OPHELIA 1996-12-17 18:00:00 TS -13.6026 116.225 main 511 506 O_____P_____O_ jtwc_sh SH111997 -13.5000 116.200 45 0 -13.8079 116.275 20 28 998 107 -13.5000 116.200 TC 45 6 94
1996348S09108 1997 121 SI WA OPHELIA 1996-12-17 21:00:00 TS -13.6292 116.521 main 506 505 P_____P_____P_ SH111997 -13.5425 116.522 45 0 -13.8026 116.519 20 25 999 107 -13.5425 116.522 TC 45 6 96
1996348S09108 1997 121 SI WA OPHELIA 1996-12-17 22:00:00 TS -13.6408 116.614 25 1000 bom main 505 505 P_____O_____P_ SH111997 -13.5612 116.621 45 0 -13.8000 116.600 20 25 1000 2.00000 107 3 5 -13.5612 116.621 TC 45 5 98
1996348S09108 1997 121 SI WA OPHELIA 1996-12-18 00:00:00 TS -13.6667 116.786 main 513 502 O_____P_____O_ jtwc_sh SH111997 -13.6000 116.800 45 0 -13.8000 116.759 20 25 1000 107 -13.6000 116.800 TC 45 5 97
1996348S09108 1997 121 SI WA OPHELIA 1996-12-18 03:00:00 TS -13.6900 117.018 main 502 498 P_____P_____P_ SH111997 -13.6350 117.023 42 0 -13.8000 117.009 20 25 1000 107 -13.6350 117.023 TC 42 4 97
1996348S09108 1997 121 SI WA OPHELIA 1996-12-18 04:00:00 TS -13.7006 117.090 25 1000 bom main 498 493 P_____O_____P_ SH111997 -13.6508 117.085 41 0 -13.8000 117.100 20 25 1000 2.00000 107 3 5 -13.6508 117.085 TC 41 4 99
1996348S09108 1997 121 SI WA OPHELIA 1996-12-18 06:00:00 TS -13.7250 117.236 main 493 489 O_____P_____O_ jtwc_sh SH111997 -13.7000 117.200 40 0 -13.7749 117.307 20 25 1000 107 -13.7000 117.200 TC 40 4 106
1996348S09108 1997 121 SI WA OPHELIA 1996-12-18 07:00:00 TS -13.7608 117.307 25 1000 bom main 499 495 P_____O_____P_ SH111997 -13.7412 117.261 40 0 -13.8000 117.400 20 25 1000 2.00000 107 3 5 -13.7412 117.261 TC 40 5 131
1996348S09108 1997 121 SI WA OPHELIA 1996-12-18 09:00:00 TS -13.8906 117.432 main 505 501 P_____P_____P_ SH111997 -13.8425 117.372 40 0 -13.9868 117.552 20 25 1000 107 -13.8425 117.372 TC 40 5 140
1996348S09108 1997 121 SI WA OPHELIA 1996-12-18 10:00:00 TS -13.9647 117.481 25 1000 bom main 512 512 P_____O_____P_ SH111997 -13.8970 117.421 40 0 -14.1000 117.600 20 25 1000 2.00000 107 3 5 -13.8970 117.421 TC 40 4 152
1996348S09108 1997 121 SI WA OPHELIA 1996-12-18 12:00:00 TS -14.0850 117.540 main 522 519 O_____P_____O_ jtwc_sh SH111997 -14.0000 117.500 40 0 -14.2549 117.621 20 25 1000 107 -14.0000 117.500 TC 40 3 165
1996348S09108 1997 121 SI WA OPHELIA 1996-12-18 15:00:00 TS -14.2185 117.555 main 529 529 P_____P_____P_ SH111997 -14.1075 117.565 40 0 -14.4405 117.535 20 25 1000 107 -14.1075 117.565 TC 40 3 0
1996348S09108 1997 121 SI WA OPHELIA 1996-12-18 16:00:00 TS -14.2592 117.552 25 1000 bom main 539 539 P_____O_____P_ SH111997 -14.1388 117.578 40 0 -14.5000 117.500 20 25 1000 2.00000 107 3 5 -14.1388 117.578 TC 40 3 0
1996348S09108 1997 121 SI WA OPHELIA 1996-12-18 18:00:00 TS -14.3444 117.557 main 539 539 O_____P_____O_ jtwc_sh SH111997 -14.2000 117.600 40 0 -14.6333 117.472 20 25 1000 107 -14.2000 117.600 TC 40 3 173
1996348S09108 1997 121 SI WA OPHELIA 1996-12-18 21:00:00 TS -14.4778 117.579 main 558 558 P_____P_____P_ SH111997 -14.3000 117.657 37 0 -14.8333 117.422 20 25 1000 107 -14.3000 117.657 TC 37 3 0
1996348S09108 1997 121 SI WA OPHELIA 1996-12-18 22:00:00 TS -14.5222 117.583 25 1000 bom main 558 558 P_____O_____P_ SH111997 -14.3333 117.675 36 0 -14.9000 117.400 20 25 1000 2.00000 107 3 5 -14.3333 117.675 TC 36 3 170
1996348S09108 1997 121 SI WA OPHELIA 1996-12-19 00:00:00 TS -14.6129 117.584 main 567 567 O_____P_____O_ jtwc_sh SH111997 -14.4000 117.700 35 0 -15.0387 117.352 20 25 1000 107 -14.4000 117.700 TC 35 3 187
1996348S09108 1997 121 SI WA OPHELIA 1996-12-19 03:00:00 TS -14.7513 117.559 main 564 564 P_____P_____P_ SH111997 -14.5075 117.715 35 0 -15.2390 117.247 20 25 1000 107 -14.5075 117.715 TC 35 3 192
1996348S09108 1997 121 SI WA OPHELIA 1996-12-19 04:00:00 TS -14.7942 117.542 25 1000 bom main 574 574 P_____O_____P_ SH111997 -14.5412 117.713 35 0 -15.3000 117.200 20 25 1000 2.00000 107 3 5 -14.5412 117.713 TC 35 1 0
1996348S09108 1997 121 SI WA OPHELIA 1996-12-19 06:00:00 TS -14.8209 117.532 main 574 569 O_____P_____O_ jtwc_sh SH111997 -14.6000 117.700 35 0 -15.4099 117.084 20 25 1000 107 -14.6000 117.700 TC 35 1 220
1996348S09108 1997 121 SI WA OPHELIA 1996-12-19 09:00:00 TS -14.8369 117.513 main 574 564 P_____P_____P_ SH111997 -14.6575 117.672 35 0 -15.5544 116.874 20 25 1000 107 -14.6575 117.672 TC 35 1 0
1996348S09108 1997 121 SI WA OPHELIA 1996-12-19 10:00:00 TS -14.7752 117.560 25 1000 bom main 564 564 P_____O_____P_ SH111997 -14.6721 117.655 35 0 -15.6000 116.800 20 25 1000 2.00000 107 3 5 -14.6721 117.655 TC 35 3 33
1996348S09108 1997 121 SI WA OPHELIA 1996-12-19 12:00:00 TS -14.7000 117.600 main 570 570 O___________O_ jtwc_sh SH111997 -14.7000 117.600 35 0 20 -14.7000 117.600 TC 35 1 287
1996348S09108 1997 121 SI WA OPHELIA 1996-12-19 15:00:00 TS -14.7500 117.473 main 579 574 P___________P_ SH111997 -14.7500 117.473 35 0 20 -14.7500 117.473 TC 35 3 251
1996348S09108 1997 121 SI WA OPHELIA 1996-12-19 18:00:00 TS -14.8000 117.300 main 593 593 O___________O_ jtwc_sh SH111997 -14.8000 117.300 35 0 -14.8000 117.300 TC 35 4 255
1996348S09108 1997 121 SI WA OPHELIA 1996-12-19 21:00:00 TS -14.8425 117.107 main 611 607 P___________P_ SH111997 -14.8425 117.107 32 -1 -14.8425 117.107 TC 32 4 256
1996348S09108 1997 121 SI WA OPHELIA 1996-12-20 00:00:00 TS -14.9000 116.900 main 626 619 O___________O_ jtwc_sh SH111997 -14.9000 116.900 30 -1 -14.9000 116.900 TC 30 4 251
1996348S09108 1997 121 SI WA OPHELIA 1996-12-20 03:00:00 TS -14.9775 116.707 main 622 613 P___________P_ SH111997 -14.9775 116.707 30 -1 -14.9775 116.707 TC 30 4 243
1996348S09108 1997 121 SI WA OPHELIA 1996-12-20 06:00:00 TS -15.1000 116.500 main 615 594 O___________O_ jtwc_sh SH111997 -15.1000 116.500 30 -1 -15.1000 116.500 TC 30 5 234
1996348S09108 1997 121 SI WA OPHELIA 1996-12-20 09:00:00 TS -15.3000 116.250 main 594 574 P___________P_ SH111997 -15.3000 116.250 27 -1 -15.3000 116.250 TC 27 6 230
1996348S09108 1997 121 SI WA OPHELIA 1996-12-20 12:00:00 TS -15.5000 116.000 main 575 565 O___________O_ jtwc_sh SH111997 -15.5000 116.000 25 -1 -15.5000 116.000 TC 25 6 234
1996348S09108 1997 121 SI WA OPHELIA 1996-12-20 15:00:00 TS -15.6225 115.785 main 567 558 P___________P_ SH111997 -15.6225 115.785 25 -1 -15.6225 115.785 TC 25 4 243
1996348S09108 1997 121 SI WA OPHELIA 1996-12-20 18:00:00 TS -15.7000 115.600 main 560 551 O___________O_ jtwc_sh SH111997 -15.7000 115.600 25 -1 -15.7000 115.600 TC 25 4 248
1996348S09108 1997 121 SI WA OPHELIA 1996-12-20 21:00:00 TS -15.7650 115.427 main 554 554 P___________P_ SH111997 -15.7650 115.427 25 -1 -15.7650 115.427 TC 25 3 251
1996348S09108 1997 121 SI WA OPHELIA 1996-12-21 00:00:00 TS -15.8000 115.300 main 557 557 O___________O_ jtwc_sh SH111997 -15.8000 115.300 25 -1 -15.8000 115.300 TC 25 2 257
1996348S09108 1997 121 SI WA OPHELIA 1996-12-21 03:00:00 TS -15.8075 115.235 main 559 559 P___________P_ SH111997 -15.8075 115.235 25 -1 -15.8075 115.235 TC 25 1 270
1996348S09108 1997 121 SI WA OPHELIA 1996-12-21 06:00:00 TS -15.8000 115.200 main 559 559 O___________O_ jtwc_sh SH111997 -15.8000 115.200 25 -1 -15.8000 115.200 TC 25 1 275
1996348S09108 1997 121 SI WA OPHELIA 1996-12-21 09:00:00 TS -15.8000 115.150 main 559 559 P___________P_ SH111997 -15.8000 115.150 25 -1 -15.8000 115.150 TC 25 1 270
1996348S09108 1997 121 SI WA OPHELIA 1996-12-21 12:00:00 TS -15.8000 115.100 main 562 562 O___________O_ jtwc_sh SH111997 -15.8000 115.100 25 -1 -15.8000 115.100 TC 25 1 270
1996348S09108 1997 121 SI WA OPHELIA 1996-12-21 15:00:00 TS -15.8000 115.058 main 562 562 P___________P_ SH111997 -15.8000 115.058 25 -1 -15.8000 115.058 TC 25 1 270
1996348S09108 1997 121 SI WA OPHELIA 1996-12-21 18:00:00 TS -15.8000 115.000 main 566 566 O___________O_ jtwc_sh SH111997 -15.8000 115.000 25 -1 -15.8000 115.000 TC 25 1 270
1996348S09108 1997 121 SI WA OPHELIA 1996-12-21 21:00:00 TS -15.8000 114.908 main 569 569 P___________P_ SH111997 -15.8000 114.908 25 -1 -15.8000 114.908 TC 25 2 270
1996348S09108 1997 121 SI WA OPHELIA 1996-12-22 00:00:00 TS -15.8000 114.800 main 573 573 O___________O_ jtwc_sh SH111997 -15.8000 114.800 25 -1 -15.8000 114.800 TC 25 2 270
1996348S09108 1997 121 SI WA OPHELIA 1996-12-22 03:00:00 TS -15.8000 114.708 main 577 577 P___________P_ SH111997 -15.8000 114.708 25 -1 -15.8000 114.708 TC 25 2 270
1996348S09108 1997 121 SI WA OPHELIA 1996-12-22 06:00:00 TS -15.8000 114.600 main 581 581 O___________O_ jtwc_sh SH111997 -15.8000 114.600 25 -1 -15.8000 114.600 TC 25 2 270
1996348S09108 1997 121 SI WA OPHELIA 1996-12-22 09:00:00 TS -15.8000 114.465 main 585 585 P___________P_ SH111997 -15.8000 114.465 25 -1 -15.8000 114.465 TC 25 3 270
1996348S09108 1997 121 SI WA OPHELIA 1996-12-22 12:00:00 TS -15.8000 114.300 main 593 593 O___________O_ jtwc_sh SH111997 -15.8000 114.300 25 -1 -15.8000 114.300 TC 25 3 267
1996348S09108 1997 121 SI WA OPHELIA 1996-12-22 15:00:00 TS -15.8150 114.115 main 603 603 P___________P_ SH111997 -15.8150 114.115 25 -1 -15.8150 114.115 TC 25 4 270
1996348S09108 1997 121 SI WA OPHELIA 1996-12-22 18:00:00 TS -15.8000 113.900 main 613 613 O___________O_ jtwc_sh SH111997 -15.8000 113.900 25 -1 -15.8000 113.900 TC 25 5 282
1996348S09108 1997 121 SI WA OPHELIA 1996-12-22 21:00:00 TS -15.7150 113.642 main 638 638 P___________P_ SH111997 -15.7150 113.642 25 -1 -15.7150 113.642 TC 25 5 293
1996348S09108 1997 121 SI WA OPHELIA 1996-12-23 00:00:00 TS -15.6000 113.400 main 659 659 O___________O_ jtwc_sh SH111997 -15.6000 113.400 25 -1 -15.6000 113.400 TC 25 5 299
1996348S09108 1997 121 SI WA OPHELIA 1996-12-23 03:00:00 TS -15.4925 113.228 main 680 680 P___________P_ SH111997 -15.4925 113.228 25 -1 -15.4925 113.228 TC 25 4 305
1996348S09108 1997 121 SI WA OPHELIA 1996-12-23 06:00:00 TS -15.4000 113.100 main 695 695 O___________O_ jtwc_sh SH111997 -15.4000 113.100 25 -1 -15.4000 113.100 TC 25 3 298
1996348S09108 1997 121 SI WA OPHELIA 1996-12-23 09:00:00 TS -15.3650 112.978 main 701 701 P___________P_ SH111997 -15.3650 112.978 25 -1 -15.3650 112.978 TC 25 2 297
1996348S09108 1997 121 SI WA OPHELIA 1996-12-23 12:00:00 TS -15.3000 112.900 main 716 716 O___________O_ jtwc_sh SH111997 -15.3000 112.900 25 -1 -15.3000 112.900 TC 25 3 337
1996348S09108 1997 121 SI WA OPHELIA 1996-12-23 15:00:00 TS -15.1150 112.870 main 729 707 P___________P_ SH111997 -15.1150 112.870 25 -1 -15.1150 112.870 TC 25 4 0
1996348S09108 1997 121 SI WA OPHELIA 1996-12-23 18:00:00 TS -14.9000 112.900 main 707 694 O___________O_ jtwc_sh SH111997 -14.9000 112.900 25 -1 -14.9000 112.900 TC 25 4 15
1996348S09108 1997 121 SI WA OPHELIA 1996-12-23 21:00:00 TS -14.7425 112.970 main 683 669 P___________P_ SH111997 -14.7425 112.970 25 -1 -14.7425 112.970 TC 25 4 33
1996348S09108 1997 121 SI WA OPHELIA 1996-12-24 00:00:00 TS -14.6000 113.100 main 669 642 O___________O_ jtwc_sh SH111997 -14.6000 113.100 25 -1 -14.6000 113.100 TC 25 4 45
1996348S09108 1997 121 SI WA OPHELIA 1996-12-24 03:00:00 TS -14.4275 113.293 main 642 627 P___________P_ SH111997 -14.4275 113.293 25 -1 -14.4275 113.293 TC 25 5 52
1996348S09108 1997 121 SI WA OPHELIA 1996-12-24 06:00:00 TS -14.3000 113.500 main 627 612 O___________O_ jtwc_sh SH111997 -14.3000 113.500 25 -1 -14.3000 113.500 TC 25 4 65
1996348S09108 1997 121 SI WA OPHELIA 1996-12-24 09:00:00 TS -14.2475 113.687 main 612 612 P___________P_ SH111997 -14.2475 113.687 25 -1 -14.2475 113.687 TC 25 3 90
1996348S09108 1997 121 SI WA OPHELIA 1996-12-24 12:00:00 TS -14.3000 113.800 main 622 622 O___________O_ jtwc_sh SH111997 -14.3000 113.800 25 -1 -14.3000 113.800 TC 25 3 157
1996348S09108 1997 121 SI WA OPHELIA 1996-12-24 15:00:00 TS -14.4775 113.788 main 644 644 P___________P_ SH111997 -14.4775 113.788 25 -1 -14.4775 113.788 TC 25 4 193
1996348S09108 1997 121 SI WA OPHELIA 1996-12-24 18:00:00 TS -14.7000 113.700 main 667 667 O___________O_ jtwc_sh SH111997 -14.7000 113.700 25 -1 -14.7000 113.700 TC 25 4 205
1996348S09108 1997 121 SI WA OPHELIA 1996-12-24 21:00:00 TS -14.8425 113.615 main 680 680 P___________P_ SH111997 -14.8425 113.615 25 -1 -14.8425 113.615 TC 25 4 213
1996348S09108 1997 121 SI WA OPHELIA 1996-12-25 00:00:00 TS -15.0000 113.500 main 704 697 O___________O_ jtwc_sh SH111997 -15.0000 113.500 25 -1 -15.0000 113.500 TC 25 5 212
1996348S09108 1997 121 SI WA OPHELIA 1996-12-25 03:00:00 TS -15.2425 113.358 main 697 680 P___________P_ SH111997 -15.2425 113.358 27 -1 -15.2425 113.358 TC 27 6 210
1996348S09108 1997 121 SI WA OPHELIA 1996-12-25 06:00:00 TS -15.5000 113.200 main 680 667 O___________O_ jtwc_sh SH111997 -15.5000 113.200 30 -1 -15.5000 113.200 TC 30 6 212
1996348S09108 1997 121 SI WA OPHELIA 1996-12-25 09:00:00 TS -15.7225 113.043 main 672 658 P___________P_ SH111997 -15.7225 113.043 30 -1 -15.7225 113.043 TC 30 5 216
1996348S09108 1997 121 SI WA OPHELIA 1996-12-25 12:00:00 TS -15.9000 112.900 main 658 649 O___________O_ jtwc_sh SH111997 -15.9000 112.900 30 -1 -15.9000 112.900 TC 30 4 220
1996348S09108 1997 121 SI WA OPHELIA 1996-12-25 15:00:00 TS -16.0150 112.792 main 655 651 P___________P_ SH111997 -16.0150 112.792 30 -1 -16.0150 112.792 TC 30 3 224
1996348S09108 1997 121 SI WA OPHELIA 1996-12-25 18:00:00 TS -16.1000 112.700 main 651 642 O___________O_ jtwc_sh SH111997 -16.1000 112.700 30 -1 -16.1000 112.700 TC 30 3 223
1996348S09108 1997 121 SI WA OPHELIA 1996-12-25 21:00:00 TS -16.2000 112.615 main 648 639 P___________P_ SH111997 -16.2000 112.615 30 -1 -16.2000 112.615 TC 30 3 224
1996348S09108 1997 121 SI WA OPHELIA 1996-12-26 00:00:00 TS -16.3000 112.500 main 645 637 O___________O_ jtwc_sh SH111997 -16.3000 112.500 30 -1 -16.3000 112.500 TC 30 4 234
1996348S09108 1997 121 SI WA OPHELIA 1996-12-26 03:00:00 TS -16.4075 112.323 main 640 632 P___________P_ SH111997 -16.4075 112.323 30 -1 -16.4075 112.323 TC 30 4 243
1996348S09108 1997 121 SI WA OPHELIA 1996-12-26 06:00:00 TS -16.5000 112.100 main 636 632 O___________O_ jtwc_sh SH111997 -16.5000 112.100 30 -1 -16.5000 112.100 TC 30 5 251
1996348S09108 1997 121 SI WA OPHELIA 1996-12-26 09:00:00 TS -16.5575 111.857 main 632 632 P___________P_ SH111997 -16.5575 111.857 27 -1 -16.5575 111.857 TC 27 5 258
1996348S09108 1997 121 SI WA OPHELIA 1996-12-26 12:00:00 TS -16.6000 111.600 main 644 644 O___________O_ jtwc_sh SH111997 -16.6000 111.600 25 -1 -16.6000 111.600 TC 25 5 260
1996348S09108 1997 121 SI WA OPHELIA 1996-12-26 15:00:00 TS -16.6425 111.350 main 657 646 P___________P_ SH111997 -16.6425 111.350 25 -1 -16.6425 111.350 TC 25 5 258
1996348S09108 1997 121 SI WA OPHELIA 1996-12-26 18:00:00 TS -16.7000 111.100 main 656 656 O___________O_ jtwc_sh SH111997 -16.7000 111.100 25 -1 -16.7000 111.100 TC 25 5 253
1996348S09108 1997 121 SI WA OPHELIA 1996-12-26 21:00:00 TS -16.7925 110.850 main 656 656 P___________P_ SH111997 -16.7925 110.850 25 -1 -16.7925 110.850 TC 25 5 247
1996348S09108 1997 121 SI WA OPHELIA 1996-12-27 00:00:00 TS -16.9000 110.600 main 663 659 O___________O_ jtwc_sh SH111997 -16.9000 110.600 25 -1 -16.9000 110.600 TC 25 5 246
1996348S09108 1997 121 SI WA OPHELIA 1996-12-27 03:00:00 TS -17.0026 110.350 main 665 665 P___________P_ SH111997 -17.0026 110.350 25 -1 -17.0026 110.350 TC 25 5 247
1996348S09108 1997 121 SI WA OPHELIA 1996-12-27 06:00:00 TS -17.1000 110.100 main 674 O___________O_ jtwc_sh SH111997 -17.1000 110.100 25 -1 -17.1000 110.100 TC 25 5 248

About IBTrACS Database

This database is a web-friendly format of International Best Track Archive for Climate Stewardship (IBTrACS), a global best track data archive curated by NOAA dating back to 1842.

Updated: 2021-12-08